createdAt,value
2018-03-01T00:00:33.701Z,19.94
2018-03-01T00:01:33.540Z,19.94
2018-03-01T00:03:34.388Z,19.92
2018-03-01T00:06:33.869Z,19.94
2018-03-01T00:07:33.700Z,19.90
2018-03-01T00:12:34.051Z,19.95
2018-03-01T00:13:33.738Z,19.94
2018-03-01T00:14:33.736Z,19.94
2018-03-01T00:15:33.818Z,19.92
2018-03-01T00:16:33.826Z,19.95
2018-03-01T00:17:33.910Z,19.90
2018-03-01T00:18:33.904Z,19.90
2018-03-01T00:19:33.899Z,19.94
2018-03-01T00:20:34.013Z,19.92
2018-03-01T00:21:34.016Z,19.98
2018-03-01T00:22:33.988Z,19.97
2018-03-01T00:23:34.059Z,19.90
2018-03-01T00:24:34.388Z,19.95
2018-03-01T00:25:34.126Z,19.94
2018-03-01T00:26:34.120Z,19.95
2018-03-01T00:27:34.139Z,19.92
2018-03-01T00:28:34.316Z,19.95
2018-03-01T00:29:34.278Z,19.86
2018-03-01T00:30:34.574Z,19.89
2018-03-01T00:31:34.300Z,19.95
2018-03-01T00:32:34.267Z,19.94
2018-03-01T00:33:34.339Z,19.94
2018-03-01T00:34:34.345Z,19.92
2018-03-01T00:35:34.356Z,19.94
2018-03-01T00:36:34.732Z,19.92
2018-03-01T00:37:34.536Z,19.90
2018-03-01T00:38:34.544Z,19.86
2018-03-01T00:39:34.469Z,19.97
2018-03-01T00:40:34.517Z,19.87
2018-03-01T00:41:34.609Z,19.89
2018-03-01T00:42:34.939Z,19.92
2018-03-01T00:43:34.643Z,19.87
2018-03-01T00:44:34.616Z,19.87
2018-03-01T00:45:34.665Z,19.89
2018-03-01T00:46:34.799Z,19.87
2018-03-01T00:47:34.717Z,19.87
2018-03-01T00:48:34.842Z,19.82
2018-03-01T00:49:35.146Z,19.89
2018-03-01T00:50:34.848Z,19.87
2018-03-01T00:51:34.913Z,19.80
2018-03-01T00:52:34.909Z,19.82
2018-03-01T00:53:34.934Z,19.85
2018-03-01T00:54:34.961Z,19.82
2018-03-01T00:55:34.964Z,19.79
2018-03-01T00:56:35.555Z,19.83
2018-03-01T00:57:35.105Z,19.86
2018-03-01T00:58:35.058Z,19.80
2018-03-01T00:59:35.060Z,19.75
2018-03-01T01:00:35.105Z,19.76
2018-03-01T01:01:35.172Z,19.76
2018-03-01T01:02:35.218Z,19.82
2018-03-01T01:03:35.531Z,19.86
2018-03-01T01:04:35.293Z,19.82
2018-03-01T01:05:35.236Z,19.75
2018-03-01T01:06:35.338Z,19.76
2018-03-01T01:07:35.310Z,19.72
2018-03-01T01:08:35.335Z,19.70
2018-03-01T01:09:35.367Z,19.80
2018-03-01T01:10:35.756Z,19.82
2018-03-01T01:11:35.410Z,19.78
2018-03-01T01:12:35.488Z,19.83
2018-03-01T01:14:35.588Z,19.79
2018-03-01T01:15:35.540Z,19.75
2018-03-01T01:16:35.609Z,19.76
2018-03-01T01:17:35.963Z,19.80
2018-03-01T01:18:35.653Z,19.71
2018-03-01T01:19:35.708Z,19.76
2018-03-01T01:20:35.691Z,19.79
2018-03-01T01:21:35.758Z,19.70
2018-03-01T01:22:35.858Z,19.75
2018-03-01T01:24:36.165Z,19.75
2018-03-01T01:25:35.844Z,19.76
2018-03-01T01:26:35.931Z,19.71
2018-03-01T01:30:36.329Z,19.72
2018-03-01T01:31:36.082Z,19.76
2018-03-01T01:32:36.118Z,19.86
2018-03-01T01:33:36.051Z,19.72
2018-03-01T01:35:36.124Z,19.72
2018-03-01T01:38:36.548Z,19.71
2018-03-01T01:39:36.227Z,19.76
2018-03-01T01:40:36.375Z,19.79
2018-03-01T01:42:36.376Z,19.71
2018-03-01T01:47:36.833Z,19.76
2018-03-01T01:48:36.507Z,19.76
2018-03-01T01:49:36.524Z,19.76
2018-03-01T01:50:36.547Z,19.76
2018-03-01T01:51:36.597Z,19.78
2018-03-01T01:52:36.653Z,19.82
2018-03-01T01:53:36.889Z,19.79
2018-03-01T01:54:37.018Z,19.85
2018-03-01T01:55:36.696Z,19.85
2018-03-01T01:56:36.740Z,19.82
2018-03-01T01:57:36.816Z,19.76
2018-03-01T01:58:36.885Z,19.79
2018-03-01T01:59:36.920Z,19.86
2018-03-01T02:00:37.191Z,19.82
2018-03-01T02:01:36.938Z,19.78
2018-03-01T02:02:37.017Z,19.82
2018-03-01T02:03:36.986Z,19.80
2018-03-01T02:04:36.964Z,19.85
2018-03-01T02:05:37.053Z,19.80
2018-03-01T02:06:37.369Z,19.80
2018-03-01T02:07:37.094Z,19.79
2018-03-01T02:08:37.097Z,19.80
2018-03-01T02:09:37.106Z,19.78
2018-03-01T02:10:37.183Z,19.82
2018-03-01T02:11:37.215Z,19.80
2018-03-01T02:12:37.622Z,19.76
2018-03-01T02:13:37.260Z,19.78
2018-03-01T02:14:37.300Z,19.79
2018-03-01T02:15:37.306Z,19.80
2018-03-01T02:16:37.416Z,19.82
2018-03-01T02:17:37.336Z,19.79
2018-03-01T02:18:37.744Z,19.79
2018-03-01T02:19:37.416Z,19.80
2018-03-01T02:20:37.464Z,19.80
2018-03-01T02:21:37.459Z,19.86
2018-03-01T02:22:37.493Z,19.85
2018-03-01T02:23:37.568Z,19.76
2018-03-01T02:24:37.897Z,19.79
2018-03-01T02:25:37.592Z,19.80
2018-03-01T02:26:37.685Z,19.82
2018-03-01T02:27:37.631Z,19.80
2018-03-01T02:28:37.713Z,19.82
2018-03-01T02:29:37.734Z,19.83
2018-03-01T02:30:38.073Z,19.78
2018-03-01T02:31:37.768Z,19.86
2018-03-01T02:32:37.833Z,19.76
2018-03-01T02:33:37.824Z,19.83
2018-03-01T02:34:37.888Z,19.76
2018-03-01T02:35:37.882Z,19.82
2018-03-01T02:36:38.247Z,19.78
2018-03-01T02:37:38.034Z,19.78
2018-03-01T02:38:37.956Z,19.75
2018-03-01T02:39:38.009Z,19.79
2018-03-01T02:40:38.036Z,19.75
2018-03-01T02:41:38.071Z,19.72
2018-03-01T02:43:38.455Z,19.76
2018-03-01T02:44:38.152Z,19.72
2018-03-01T02:45:38.178Z,19.78
2018-03-01T02:46:38.216Z,19.78
2018-03-01T02:47:38.273Z,19.76
2018-03-01T02:48:38.267Z,19.70
2018-03-01T02:49:38.629Z,19.75
2018-03-01T02:50:38.346Z,19.72
2018-03-01T02:51:38.393Z,19.71
2018-03-01T02:52:38.501Z,19.67
2018-03-01T02:53:38.393Z,19.68
2018-03-01T02:54:38.444Z,19.68
2018-03-01T02:55:38.806Z,19.70
2018-03-01T02:56:38.594Z,19.68
2018-03-01T02:57:39.473Z,19.72
2018-03-01T02:59:39.336Z,19.72
2018-03-01T03:01:39.507Z,19.75
2018-03-01T03:02:39.220Z,19.67
2018-03-01T03:06:38.849Z,19.67
2018-03-01T03:08:39.303Z,19.65
2018-03-01T03:10:39.013Z,19.58
2018-03-01T03:11:39.045Z,19.64
2018-03-01T03:12:39.025Z,19.70
2018-03-01T03:17:39.447Z,19.71
2018-03-01T03:19:39.255Z,19.65
2018-03-01T03:20:39.201Z,19.68
2018-03-01T03:21:39.216Z,19.67
2018-03-01T03:22:39.309Z,19.76
2018-03-01T03:23:39.341Z,19.75
2018-03-01T03:24:39.649Z,19.64
2018-03-01T03:25:39.345Z,19.62
2018-03-01T03:26:39.386Z,19.71
2018-03-01T03:27:39.456Z,19.71
2018-03-01T03:28:39.431Z,19.79
2018-03-01T03:29:39.556Z,19.72
2018-03-01T03:30:39.480Z,19.72
2018-03-01T03:31:39.872Z,19.76
2018-03-01T03:32:39.561Z,19.67
2018-03-01T03:33:39.580Z,19.72
2018-03-01T03:34:39.662Z,19.71
2018-03-01T03:35:39.691Z,19.78
2018-03-01T03:36:39.718Z,19.71
2018-03-01T03:37:39.696Z,19.72
2018-03-01T03:38:40.062Z,19.72
2018-03-01T03:39:39.817Z,19.70
2018-03-01T03:40:39.831Z,19.79
2018-03-01T03:41:39.824Z,19.75
2018-03-01T03:42:39.839Z,19.76
2018-03-01T03:43:39.869Z,19.72
2018-03-01T03:44:39.950Z,19.67
2018-03-01T03:45:40.289Z,19.80
2018-03-01T03:46:40.035Z,19.70
2018-03-01T03:47:39.971Z,19.71
2018-03-01T03:48:40.017Z,19.71
2018-03-01T03:49:40.088Z,19.76
2018-03-01T03:50:40.077Z,19.76
2018-03-01T03:51:40.104Z,19.71
2018-03-01T03:52:40.455Z,19.75
2018-03-01T03:53:40.164Z,19.79
2018-03-01T03:54:40.197Z,19.75
2018-03-01T03:55:40.272Z,19.83
2018-03-01T03:56:40.286Z,19.76
2018-03-01T03:57:40.284Z,19.75
2018-03-01T03:58:40.340Z,19.67
2018-03-01T03:59:40.689Z,19.76
2018-03-01T04:00:40.369Z,19.76
2018-03-01T04:01:40.408Z,19.76
2018-03-01T04:02:40.434Z,19.76
2018-03-01T04:03:40.837Z,19.79
2018-03-01T04:04:40.485Z,19.82
2018-03-01T04:05:40.516Z,19.72
2018-03-01T04:06:40.915Z,19.75
2018-03-01T04:07:40.626Z,19.76
2018-03-01T04:08:40.637Z,19.67
2018-03-01T04:09:40.622Z,19.72
2018-03-01T04:10:40.750Z,19.67
2018-03-01T04:11:40.749Z,19.75
2018-03-01T04:12:40.754Z,19.75
2018-03-01T04:13:41.113Z,19.76
2018-03-01T04:14:40.864Z,19.72
2018-03-01T04:15:40.913Z,19.78
2018-03-01T04:16:40.824Z,19.82
2018-03-01T04:17:40.908Z,19.79
2018-03-01T04:18:40.881Z,19.71
2018-03-01T04:19:41.098Z,19.79
2018-03-01T04:20:41.300Z,19.76
2018-03-01T04:21:41.005Z,19.72
2018-03-01T04:22:41.049Z,19.79
2018-03-01T04:23:41.026Z,19.71
2018-03-01T04:24:41.078Z,19.80
2018-03-01T04:25:41.545Z,19.76
2018-03-01T04:26:41.164Z,19.76
2018-03-01T04:27:41.516Z,19.75
2018-03-01T04:28:41.202Z,19.71
2018-03-01T04:29:41.270Z,19.60
2018-03-01T04:30:41.512Z,19.75
2018-03-01T04:33:41.668Z,19.70
2018-03-01T04:35:41.427Z,19.70
2018-03-01T04:36:41.469Z,19.72
2018-03-01T04:38:41.467Z,19.68
2018-03-01T04:40:41.853Z,19.68
2018-03-01T04:41:41.580Z,19.67
2018-03-01T04:42:41.601Z,19.64
2018-03-01T04:44:41.663Z,19.55
2018-03-01T04:46:42.067Z,19.65
2018-03-01T04:49:44.937Z,19.60
2018-03-01T04:50:41.818Z,19.58
2018-03-01T04:51:42.024Z,19.65
2018-03-01T04:53:41.984Z,19.62
2018-03-01T04:54:41.934Z,19.62
2018-03-01T04:55:42.067Z,19.61
2018-03-01T04:56:42.121Z,19.49
2018-03-01T04:57:42.092Z,19.57
2018-03-01T04:58:42.364Z,19.61
2018-03-01T04:59:42.196Z,19.53
2018-03-01T05:00:42.172Z,19.52
2018-03-01T05:01:42.222Z,19.53
2018-03-01T05:02:42.186Z,19.53
2018-03-01T05:03:42.352Z,19.47
2018-03-01T05:04:42.592Z,19.57
2018-03-01T05:05:42.347Z,19.53
2018-03-01T05:06:42.350Z,19.49
2018-03-01T05:07:42.369Z,19.52
2018-03-01T05:08:42.343Z,19.62
2018-03-01T05:09:42.473Z,19.47
2018-03-01T05:10:42.766Z,19.53
2018-03-01T05:11:42.483Z,19.52
2018-03-01T05:12:42.530Z,19.61
2018-03-01T05:13:42.896Z,19.58
2018-03-01T05:14:42.582Z,19.62
2018-03-01T05:16:42.947Z,19.60
2018-03-01T05:17:42.604Z,19.62
2018-03-01T05:18:42.690Z,19.62
2018-03-01T05:19:42.740Z,19.62
2018-03-01T05:20:42.709Z,19.65
2018-03-01T05:21:42.762Z,19.68
2018-03-01T05:22:43.120Z,19.71
2018-03-01T05:23:42.850Z,19.62
2018-03-01T05:24:42.878Z,19.71
2018-03-01T05:25:42.920Z,19.58
2018-03-01T05:26:42.877Z,19.70
2018-03-01T05:27:43.028Z,19.75
2018-03-01T05:28:43.310Z,19.71
2018-03-01T05:29:43.064Z,19.70
2018-03-01T05:30:43.000Z,19.70
2018-03-01T05:31:43.102Z,19.75
2018-03-01T05:32:43.117Z,19.71
2018-03-01T05:34:43.465Z,19.70
2018-03-01T05:35:43.145Z,19.76
2018-03-01T05:36:43.292Z,19.76
2018-03-01T05:37:43.263Z,19.72
2018-03-01T05:38:43.238Z,19.70
2018-03-01T05:39:43.297Z,19.71
2018-03-01T05:40:43.625Z,19.75
2018-03-01T05:41:43.388Z,19.78
2018-03-01T05:42:43.362Z,19.67
2018-03-01T05:43:43.428Z,19.75
2018-03-01T05:44:43.482Z,19.75
2018-03-01T05:45:43.528Z,19.71
2018-03-01T05:46:43.563Z,19.80
2018-03-01T05:47:43.849Z,19.78
2018-03-01T05:48:43.556Z,19.83
2018-03-01T05:49:43.540Z,19.80
2018-03-01T05:50:43.671Z,19.79
2018-03-01T05:51:44.055Z,19.83
2018-03-01T05:52:43.647Z,19.71
2018-03-01T05:53:43.669Z,19.75
2018-03-01T05:54:44.054Z,19.76
2018-03-01T05:55:43.771Z,19.76
2018-03-01T05:57:43.806Z,19.78
2018-03-01T05:58:43.890Z,19.78
2018-03-01T05:59:43.832Z,19.79
2018-03-01T06:00:43.862Z,19.76
2018-03-01T06:01:44.260Z,19.80
2018-03-01T06:02:44.051Z,19.70
2018-03-01T06:03:44.046Z,19.82
2018-03-01T06:04:43.999Z,19.80
2018-03-01T06:05:44.079Z,19.72
2018-03-01T06:06:44.135Z,19.76
2018-03-01T06:07:44.115Z,19.76
2018-03-01T06:09:44.475Z,19.75
2018-03-01T06:10:44.212Z,19.79
2018-03-01T06:11:44.234Z,19.71
2018-03-01T06:12:44.277Z,19.78
2018-03-01T06:13:44.293Z,19.76
2018-03-01T06:14:44.339Z,19.71
2018-03-01T06:15:44.689Z,19.70
2018-03-01T06:16:44.680Z,19.68
2018-03-01T06:17:44.537Z,19.75
2018-03-01T06:18:44.472Z,19.72
2018-03-01T06:19:44.444Z,19.70
2018-03-01T06:20:44.443Z,19.75
2018-03-01T06:24:44.914Z,19.70
2018-03-01T06:26:44.752Z,19.68
2018-03-01T06:27:45.512Z,19.76
2018-03-01T06:28:44.750Z,19.75
2018-03-01T06:29:44.816Z,19.67
2018-03-01T06:31:45.121Z,19.76
2018-03-01T06:32:45.259Z,19.67
2018-03-01T06:33:44.909Z,19.71
2018-03-01T06:34:44.904Z,19.72
2018-03-01T06:35:44.951Z,19.72
2018-03-01T06:36:44.964Z,19.67
2018-03-01T06:37:45.024Z,19.72
2018-03-01T06:38:45.327Z,19.76
2018-03-01T06:39:45.006Z,19.67
2018-03-01T06:40:45.183Z,19.75
2018-03-01T06:41:45.077Z,19.60
2018-03-01T06:42:45.104Z,19.64
2018-03-01T06:43:45.190Z,19.64
2018-03-01T06:44:45.167Z,19.62
2018-03-01T06:45:45.551Z,19.72
2018-03-01T06:46:45.211Z,19.62
2018-03-01T06:47:45.300Z,19.64
2018-03-01T06:48:45.359Z,19.68
2018-03-01T06:49:45.308Z,19.62
2018-03-01T06:50:45.387Z,19.67
2018-03-01T06:51:45.378Z,19.64
2018-03-01T06:52:45.747Z,19.65
2018-03-01T06:53:45.568Z,19.62
2018-03-01T06:54:45.516Z,19.64
2018-03-01T06:55:45.545Z,19.72
2018-03-01T06:56:45.571Z,19.75
2018-03-01T06:57:45.581Z,19.62
2018-03-01T06:58:45.821Z,19.67
2018-03-01T06:59:45.951Z,19.68
2018-03-01T07:00:45.681Z,19.68
2018-03-01T07:01:45.712Z,19.65
2018-03-01T07:02:45.799Z,19.70
2018-03-01T07:03:45.807Z,19.65
2018-03-01T07:04:45.852Z,19.71
2018-03-01T07:05:46.156Z,19.72
2018-03-01T07:06:45.793Z,19.78
2018-03-01T07:07:45.893Z,19.75
2018-03-01T07:08:45.850Z,19.76
2018-03-01T07:09:45.940Z,19.72
2018-03-01T07:10:45.913Z,19.75
2018-03-01T07:11:46.254Z,19.75
2018-03-01T07:12:45.969Z,19.70
2018-03-01T07:13:46.005Z,19.76
2018-03-01T07:14:46.111Z,19.83
2018-03-01T07:15:46.103Z,19.79
2018-03-01T07:16:46.146Z,19.78
2018-03-01T07:17:46.480Z,19.76
2018-03-01T07:18:46.208Z,19.83
2018-03-01T07:19:46.190Z,19.79
2018-03-01T07:20:46.269Z,19.83
2018-03-01T07:21:46.234Z,19.87
2018-03-01T07:22:46.328Z,19.86
2018-03-01T07:23:46.638Z,19.80
2018-03-01T07:24:46.398Z,19.85
2018-03-01T07:25:46.424Z,19.83
2018-03-01T07:27:46.491Z,19.89
2018-03-01T07:28:46.497Z,19.80
2018-03-01T07:29:46.839Z,19.86
2018-03-01T07:30:46.491Z,19.89
2018-03-01T07:31:46.590Z,19.95
2018-03-01T07:32:46.619Z,19.85
2018-03-01T07:33:46.659Z,19.92
2018-03-01T07:34:46.689Z,19.92
2018-03-01T07:35:47.012Z,19.89
2018-03-01T07:36:46.717Z,19.95
2018-03-01T07:37:46.721Z,19.90
2018-03-01T07:38:46.836Z,19.92
2018-03-01T07:39:46.781Z,19.94
2018-03-01T07:40:46.857Z,19.90
2018-03-01T07:41:46.817Z,19.86
2018-03-01T07:42:47.214Z,19.94
2018-03-01T07:43:46.927Z,19.85
2018-03-01T07:44:46.926Z,19.87
2018-03-01T07:46:47.357Z,19.94
2018-03-01T07:51:47.483Z,19.89
2018-03-01T07:52:47.908Z,19.90
2018-03-01T07:53:47.195Z,19.94
2018-03-01T07:54:48.059Z,19.87
2018-03-01T07:55:47.307Z,19.95
2018-03-01T07:56:47.280Z,19.94
2018-03-01T07:57:47.725Z,20.01
2018-03-01T07:58:47.456Z,19.90
2018-03-01T07:59:47.409Z,19.90
2018-03-01T08:00:47.383Z,19.94
2018-03-01T08:01:47.415Z,19.94
2018-03-01T08:02:47.504Z,19.90
2018-03-01T08:03:47.939Z,19.92
2018-03-01T08:04:47.548Z,19.92
2018-03-01T08:05:47.631Z,19.90
2018-03-01T08:06:47.653Z,19.94
2018-03-01T08:07:47.671Z,19.94
2018-03-01T08:08:47.732Z,19.92
2018-03-01T08:09:48.041Z,19.95
2018-03-01T08:10:47.675Z,19.90
2018-03-01T08:11:47.768Z,19.90
2018-03-01T08:12:47.752Z,19.95
2018-03-01T08:13:47.892Z,19.92
2018-03-01T08:14:47.791Z,19.92
2018-03-01T08:15:47.837Z,19.94
2018-03-01T08:16:48.259Z,19.92
2018-03-01T08:17:47.934Z,19.98
2018-03-01T08:18:47.990Z,19.89
2018-03-01T08:19:47.998Z,19.90
2018-03-01T08:20:48.043Z,19.95
2018-03-01T08:21:48.227Z,19.95
2018-03-01T08:22:48.107Z,19.90
2018-03-01T08:23:48.417Z,19.95
2018-03-01T08:24:48.549Z,19.87
2018-03-01T08:25:48.175Z,19.90
2018-03-01T08:26:48.231Z,19.94
2018-03-01T08:27:48.236Z,19.94
2018-03-01T08:28:48.222Z,19.94
2018-03-01T08:29:48.318Z,19.90
2018-03-01T08:30:48.631Z,19.90
2018-03-01T08:31:48.294Z,19.87
2018-03-01T08:32:48.425Z,19.94
2018-03-01T08:33:48.358Z,19.94
2018-03-01T08:34:48.447Z,19.89
2018-03-01T08:35:48.418Z,19.95
2018-03-01T08:36:48.446Z,19.94
2018-03-01T08:37:48.853Z,19.95
2018-03-01T08:38:48.523Z,19.87
2018-03-01T08:39:48.546Z,19.90
2018-03-01T08:40:48.650Z,19.94
2018-03-01T08:41:49.130Z,20.05
2018-03-01T08:42:48.714Z,20.02
2018-03-01T08:43:48.766Z,20.02
2018-03-01T08:44:49.116Z,20.05
2018-03-01T08:45:48.726Z,20.04
2018-03-01T08:46:48.806Z,20.04
2018-03-01T08:47:48.773Z,20.08
2018-03-01T08:48:48.847Z,20.07
2018-03-01T08:49:48.890Z,20.02
2018-03-01T08:50:49.131Z,20.15
2018-03-01T08:51:49.262Z,20.10
2018-03-01T08:52:49.055Z,20.12
2018-03-01T08:53:49.036Z,20.17
2018-03-01T08:54:49.452Z,20.19
2018-03-01T08:55:49.103Z,20.19
2018-03-01T08:56:49.089Z,20.19
2018-03-01T08:57:49.240Z,20.12
2018-03-01T08:59:49.498Z,20.17
2018-03-01T09:00:49.352Z,20.20
2018-03-01T09:01:49.239Z,20.22
2018-03-01T09:02:49.273Z,20.22
2018-03-01T09:03:49.414Z,20.25
2018-03-01T09:04:49.273Z,20.33
2018-03-01T09:05:49.331Z,20.31
2018-03-01T09:06:50.088Z,20.31
2018-03-01T09:07:49.431Z,20.35
2018-03-01T09:08:49.415Z,20.34
2018-03-01T09:09:49.428Z,20.37
2018-03-01T09:10:49.483Z,20.41
2018-03-01T09:11:49.572Z,20.38
2018-03-01T09:12:49.986Z,20.41
2018-03-01T09:13:49.975Z,20.30
2018-03-01T09:14:49.635Z,20.41
2018-03-01T09:15:49.608Z,20.42
2018-03-01T09:16:49.656Z,20.37
2018-03-01T09:17:49.698Z,20.38
2018-03-01T09:18:49.748Z,20.44
2018-03-01T09:19:49.836Z,20.42
2018-03-01T09:20:50.106Z,20.50
2018-03-01T09:21:49.834Z,20.48
2018-03-01T09:25:50.695Z,20.48
2018-03-01T09:26:50.005Z,20.41
2018-03-01T09:27:50.396Z,20.56
2018-03-01T09:28:50.044Z,20.54
2018-03-01T09:29:50.122Z,20.41
2018-03-01T09:30:50.058Z,20.57
2018-03-01T09:31:50.115Z,20.54
2018-03-01T09:32:50.583Z,20.57
2018-03-01T09:33:50.519Z,20.54
2018-03-01T09:34:50.259Z,20.64
2018-03-01T09:35:50.279Z,20.57
2018-03-01T09:36:50.286Z,20.57
2018-03-01T09:37:50.349Z,20.63
2018-03-01T09:38:50.420Z,20.57
2018-03-01T09:39:50.699Z,20.61
2018-03-01T09:40:50.432Z,20.63
2018-03-01T09:41:50.436Z,20.61
2018-03-01T09:42:50.487Z,20.66
2018-03-01T09:43:50.504Z,20.64
2018-03-01T09:44:50.599Z,20.63
2018-03-01T09:45:51.878Z,20.71
2018-03-01T09:46:50.624Z,20.60
2018-03-01T09:47:50.750Z,20.63
2018-03-01T09:48:50.655Z,20.64
2018-03-01T09:50:50.679Z,20.66
2018-03-01T09:51:50.694Z,20.60
2018-03-01T09:52:51.093Z,20.68
2018-03-01T09:53:50.817Z,20.69
2018-03-01T09:54:50.880Z,20.66
2018-03-01T09:55:50.915Z,20.66
2018-03-01T09:56:50.923Z,20.64
2018-03-01T09:57:50.922Z,20.60
2018-03-01T09:58:51.308Z,20.57
2018-03-01T09:59:50.983Z,20.60
2018-03-01T10:00:51.042Z,20.63
2018-03-01T10:01:51.073Z,20.58
2018-03-01T10:02:51.038Z,20.61
2018-03-01T10:03:51.213Z,20.60
2018-03-01T10:04:51.539Z,20.60
2018-03-01T10:05:51.138Z,20.60
2018-03-01T10:06:51.193Z,20.64
2018-03-01T10:07:51.220Z,20.56
2018-03-01T10:08:51.350Z,20.60
2018-03-01T10:10:51.620Z,20.60
2018-03-01T10:11:51.350Z,20.60
2018-03-01T10:12:51.387Z,20.58
2018-03-01T10:13:51.438Z,20.58
2018-03-01T10:14:51.485Z,20.57
2018-03-01T10:15:51.488Z,20.58
2018-03-01T10:16:51.826Z,20.56
2018-03-01T10:17:51.477Z,20.60
2018-03-01T10:18:51.574Z,20.58
2018-03-01T10:19:51.587Z,20.48
2018-03-01T10:20:51.624Z,20.56
2018-03-01T10:21:51.611Z,20.58
2018-03-01T10:22:52.004Z,20.57
2018-03-01T10:23:51.661Z,20.54
2018-03-01T10:24:51.768Z,20.46
2018-03-01T10:25:51.829Z,20.56
2018-03-01T10:26:51.821Z,20.56
2018-03-01T10:27:51.782Z,20.53
2018-03-01T10:28:52.210Z,20.57
2018-03-01T10:29:51.854Z,20.57
2018-03-01T10:30:51.886Z,20.56
2018-03-01T10:31:51.952Z,20.60
2018-03-01T10:32:51.951Z,20.51
2018-03-01T10:33:52.087Z,20.57
2018-03-01T10:34:52.426Z,20.57
2018-03-01T10:35:52.085Z,20.57
2018-03-01T10:36:52.065Z,20.57
2018-03-01T10:37:52.483Z,20.63
2018-03-01T10:39:52.226Z,20.60
2018-03-01T10:40:52.254Z,20.58
2018-03-01T10:41:52.566Z,20.61
2018-03-01T10:42:52.246Z,20.61
2018-03-01T10:43:52.331Z,20.61
2018-03-01T10:44:52.368Z,20.68
2018-03-01T10:45:52.321Z,20.63
2018-03-01T10:47:52.757Z,20.66
2018-03-01T10:48:52.412Z,20.69
2018-03-01T10:49:52.461Z,20.69
2018-03-01T10:50:52.555Z,20.66
2018-03-01T10:51:52.560Z,20.69
2018-03-01T10:52:52.615Z,20.72
2018-03-01T10:53:52.677Z,20.78
2018-03-01T10:54:52.949Z,20.71
2018-03-01T10:55:53.082Z,20.79
2018-03-01T10:56:52.722Z,20.78
2018-03-01T10:57:52.749Z,20.71
2018-03-01T10:58:52.765Z,20.83
2018-03-01T10:59:52.810Z,20.87
2018-03-01T11:01:53.221Z,20.82
2018-03-01T11:03:53.529Z,20.88
2018-03-01T11:04:53.586Z,20.88
2018-03-01T11:05:52.940Z,20.91
2018-03-01T11:06:53.047Z,20.91
2018-03-01T11:07:53.056Z,20.96
2018-03-01T11:08:54.107Z,21.01
2018-03-01T11:09:53.481Z,20.85
2018-03-01T11:10:53.282Z,20.98
2018-03-01T11:11:53.119Z,20.88
2018-03-01T11:12:53.152Z,20.88
2018-03-01T11:13:53.232Z,20.90
2018-03-01T11:14:53.254Z,21.01
2018-03-01T11:15:53.670Z,20.96
2018-03-01T11:16:53.396Z,20.97
2018-03-01T11:17:53.365Z,20.97
2018-03-01T11:18:53.374Z,20.97
2018-03-01T11:19:53.508Z,20.97
2018-03-01T11:20:53.503Z,21.01
2018-03-01T11:21:53.474Z,21.00
2018-03-01T11:22:53.818Z,21.03
2018-03-01T11:23:53.477Z,21.01
2018-03-01T11:24:53.620Z,20.98
2018-03-01T11:25:53.558Z,21.09
2018-03-01T11:26:54.011Z,21.12
2018-03-01T11:27:53.675Z,21.05
2018-03-01T11:28:53.702Z,21.00
2018-03-01T11:29:54.014Z,21.08
2018-03-01T11:30:53.744Z,21.03
2018-03-01T11:31:53.822Z,21.13
2018-03-01T11:32:53.828Z,21.05
2018-03-01T11:33:53.912Z,21.09
2018-03-01T11:34:53.919Z,21.05
2018-03-01T11:35:54.277Z,21.18
2018-03-01T11:36:54.231Z,21.18
2018-03-01T11:37:54.000Z,21.16
2018-03-01T11:38:54.015Z,21.12
2018-03-01T11:39:54.020Z,21.15
2018-03-01T11:40:54.005Z,21.12
2018-03-01T11:41:54.091Z,21.12
2018-03-01T11:42:54.142Z,21.09
2018-03-01T11:43:54.454Z,21.18
2018-03-01T11:44:54.212Z,21.15
2018-03-01T11:45:54.211Z,21.19
2018-03-01T11:46:54.214Z,21.16
2018-03-01T11:47:54.291Z,21.08
2018-03-01T11:48:54.324Z,21.16
2018-03-01T11:49:54.341Z,21.09
2018-03-01T11:50:54.678Z,21.15
2018-03-01T11:51:54.368Z,21.13
2018-03-01T11:52:54.450Z,21.11
2018-03-01T11:53:54.474Z,21.13
2018-03-01T11:54:54.460Z,21.09
2018-03-01T11:55:54.542Z,21.08
2018-03-01T11:56:54.568Z,21.06
2018-03-01T11:57:55.327Z,21.05
2018-03-01T11:58:54.633Z,21.09
2018-03-01T11:59:54.655Z,21.15
2018-03-01T12:00:54.620Z,21.15
2018-03-01T12:01:54.733Z,21.16
2018-03-01T12:02:54.814Z,21.05
2018-03-01T12:03:54.744Z,21.16
2018-03-01T12:04:55.101Z,21.15
2018-03-01T12:05:54.905Z,21.18
2018-03-01T12:06:54.859Z,21.12
2018-03-01T12:07:54.915Z,21.11
2018-03-01T12:08:54.963Z,21.16
2018-03-01T12:09:54.952Z,21.09
2018-03-01T12:10:55.307Z,21.15
2018-03-01T12:11:54.982Z,21.08
2018-03-01T12:12:55.054Z,21.11
2018-03-01T12:13:55.097Z,21.05
2018-03-01T12:14:55.521Z,21.16
2018-03-01T12:15:55.228Z,21.09
2018-03-01T12:16:55.494Z,21.08
2018-03-01T12:17:55.225Z,21.03
2018-03-01T12:18:56.111Z,21.12
2018-03-01T12:19:55.311Z,21.13
2018-03-01T12:20:55.277Z,21.06
2018-03-01T12:22:55.676Z,21.09
2018-03-01T12:23:55.402Z,21.15
2018-03-01T12:24:55.370Z,21.09
2018-03-01T12:25:55.402Z,21.18
2018-03-01T12:26:55.481Z,21.26
2018-03-01T12:27:55.480Z,21.19
2018-03-01T12:28:55.857Z,21.18
2018-03-01T12:29:55.623Z,21.19
2018-03-01T12:30:55.620Z,21.18
2018-03-01T12:31:55.645Z,21.26
2018-03-01T12:32:55.764Z,21.15
2018-03-01T12:33:55.735Z,21.13
2018-03-01T12:34:56.032Z,21.16
2018-03-01T12:35:55.776Z,21.28
2018-03-01T12:37:56.444Z,21.26
2018-03-01T12:38:57.281Z,21.31
2018-03-01T12:39:56.210Z,21.34
2018-03-01T12:40:56.223Z,21.27
2018-03-01T12:41:55.908Z,21.27
2018-03-01T12:42:55.987Z,21.27
2018-03-01T12:43:55.976Z,21.30
2018-03-01T12:44:56.062Z,21.19
2018-03-01T12:45:56.192Z,21.27
2018-03-01T12:46:56.184Z,21.36
2018-03-01T12:47:56.265Z,21.24
2018-03-01T12:48:56.186Z,21.30
2018-03-01T12:49:56.201Z,21.31
2018-03-01T12:50:56.294Z,21.28
2018-03-01T12:51:56.273Z,21.36
2018-03-01T12:52:56.583Z,21.34
2018-03-01T12:53:56.381Z,21.34
2018-03-01T12:54:56.308Z,21.27
2018-03-01T12:55:56.393Z,21.31
2018-03-01T12:56:56.403Z,21.31
2018-03-01T12:57:56.432Z,21.34
2018-03-01T12:58:56.767Z,21.37
2018-03-01T12:59:56.538Z,21.37
2018-03-01T13:00:56.717Z,21.30
2018-03-01T13:01:56.613Z,21.33
2018-03-01T13:02:56.612Z,21.27
2018-03-01T13:03:56.645Z,21.37
2018-03-01T13:04:56.964Z,21.36
2018-03-01T13:05:56.994Z,21.38
2018-03-01T13:06:56.811Z,21.34
2018-03-01T13:07:56.752Z,21.36
2018-03-01T13:08:56.793Z,21.33
2018-03-01T13:09:56.813Z,21.40
2018-03-01T13:10:57.145Z,21.36
2018-03-01T13:11:56.870Z,21.33
2018-03-01T13:12:56.928Z,21.42
2018-03-01T13:13:56.979Z,21.40
2018-03-01T13:14:56.917Z,21.34
2018-03-01T13:15:56.973Z,21.37
2018-03-01T13:16:57.344Z,21.43
2018-03-01T13:17:57.079Z,21.49
2018-03-01T13:18:57.114Z,21.40
2018-03-01T13:19:57.069Z,21.46
2018-03-01T13:20:57.112Z,21.43
2018-03-01T13:21:57.349Z,21.46
2018-03-01T13:22:57.535Z,21.48
2018-03-01T13:23:57.251Z,21.49
2018-03-01T13:24:57.288Z,21.43
2018-03-01T13:25:57.277Z,21.40
2018-03-01T13:26:57.344Z,21.46
2018-03-01T13:27:57.357Z,21.52
2018-03-01T13:28:57.442Z,21.49
2018-03-01T13:29:57.750Z,21.52
2018-03-01T13:30:57.498Z,21.56
2018-03-01T13:32:57.530Z,21.53
2018-03-01T13:33:57.635Z,21.55
2018-03-01T13:34:57.590Z,21.58
2018-03-01T13:35:57.633Z,21.63
2018-03-01T13:36:57.978Z,21.61
2018-03-01T13:37:57.653Z,21.67
2018-03-01T13:38:57.666Z,21.64
2018-03-01T13:39:57.769Z,21.66
2018-03-01T13:40:57.785Z,21.67
2018-03-01T13:41:57.796Z,21.68
2018-03-01T13:42:57.908Z,21.71
2018-03-01T13:43:58.178Z,21.77
2018-03-01T13:44:57.861Z,21.79
2018-03-01T13:45:57.971Z,21.70
2018-03-01T13:46:57.990Z,21.73
2018-03-01T13:48:58.069Z,21.86
2018-03-01T13:49:58.085Z,21.82
2018-03-01T13:50:58.404Z,21.81
2018-03-01T13:51:58.134Z,21.91
2018-03-01T13:52:58.115Z,21.91
2018-03-01T13:53:58.202Z,21.89
2018-03-01T13:54:58.241Z,21.90
2018-03-01T13:55:58.264Z,21.93
2018-03-01T13:56:58.296Z,21.99
2018-03-01T13:57:58.640Z,22.01
2018-03-01T13:58:58.376Z,21.98
2018-03-01T13:59:58.604Z,21.98
2018-03-01T14:00:58.527Z,22.05
2018-03-01T14:01:58.448Z,22.01
2018-03-01T14:02:58.525Z,22.08
2018-03-01T14:03:58.523Z,21.98
2018-03-01T14:04:58.944Z,21.98